sensor_id;sensor_type;location;lat;lon;timestamp;pressure;altitude;pressure_sealevel;temperature;humidity
11648;BME280;5880;52.342;9.662;2022-08-24T00:01:16;101194.22;;;27.37;31.14
11648;BME280;5880;52.342;9.662;2022-08-24T00:03:44;101194.56;;;27.35;31.43
11648;BME280;5880;52.342;9.662;2022-08-24T00:06:14;101191.25;;;27.33;31.31
11648;BME280;5880;52.342;9.662;2022-08-24T00:08:41;101189.94;;;27.31;31.29
11648;BME280;5880;52.342;9.662;2022-08-24T00:11:08;101185.47;;;27.30;31.30
11648;BME280;5880;52.342;9.662;2022-08-24T00:13:34;101185.81;;;27.28;31.41
11648;BME280;5880;52.342;9.662;2022-08-24T00:16:00;101183.31;;;27.27;31.51
11648;BME280;5880;52.342;9.662;2022-08-24T00:18:27;101191.25;;;27.25;31.46
11648;BME280;5880;52.342;9.662;2022-08-24T00:20:53;101179.88;;;27.21;31.60
11648;BME280;5880;52.342;9.662;2022-08-24T00:23:18;101178.53;;;27.19;31.60
11648;BME280;5880;52.342;9.662;2022-08-24T00:25:45;101183.81;;;27.20;31.74
11648;BME280;5880;52.342;9.662;2022-08-24T00:28:11;101182.47;;;27.17;31.61
11648;BME280;5880;52.342;9.662;2022-08-24T00:30:36;101182.97;;;27.11;31.47
11648;BME280;5880;52.342;9.662;2022-08-24T00:33:03;101186.28;;;27.13;31.67
11648;BME280;5880;52.342;9.662;2022-08-24T00:35:29;101184.16;;;27.10;31.93
11648;BME280;5880;52.342;9.662;2022-08-24T00:37:55;101179.03;;;27.03;31.92
11648;BME280;5880;52.342;9.662;2022-08-24T00:40:36;101179.34;;;27.02;31.92
11648;BME280;5880;52.342;9.662;2022-08-24T00:43:06;101188.25;;;27.04;32.25
11648;BME280;5880;52.342;9.662;2022-08-24T00:45:41;101188.25;;;27.04;32.25
11648;BME280;5880;52.342;9.662;2022-08-24T00:48:22;101181.69;;;27.00;32.09
11648;BME280;5880;52.342;9.662;2022-08-24T00:51:05;101181.19;;;26.98;32.11
11648;BME280;5880;52.342;9.662;2022-08-24T00:53:53;101191.41;;;26.93;32.23
11648;BME280;5880;52.342;9.662;2022-08-24T00:56:34;101188.09;;;26.91;32.34
11648;BME280;5880;52.342;9.662;2022-08-24T00:59:07;101174.91;;;26.83;32.12
11648;BME280;5880;52.342;9.662;2022-08-24T01:01:34;101175.75;;;26.84;32.22
11648;BME280;5880;52.342;9.662;2022-08-24T01:04:01;101172.13;;;26.83;32.42
11648;BME280;5880;52.342;9.662;2022-08-24T01:06:28;101177.53;;;26.80;32.38
11648;BME280;5880;52.342;9.662;2022-08-24T01:08:54;101172.91;;;26.75;32.40
11648;BME280;5880;52.342;9.662;2022-08-24T01:11:24;101169.31;;;26.74;32.26
11648;BME280;5880;52.342;9.662;2022-08-24T01:13:52;101170.09;;;26.66;32.60
11648;BME280;5880;52.342;9.662;2022-08-24T01:16:20;101179.19;;;26.72;32.67
11648;BME280;5880;52.342;9.662;2022-08-24T01:24:46;101173.75;;;26.58;32.69
11648;BME280;5880;52.342;9.662;2022-08-24T01:27:13;101179.34;;;26.58;32.79
11648;BME280;5880;52.342;9.662;2022-08-24T01:29:41;101175.22;;;26.56;32.75
11648;BME280;5880;52.342;9.662;2022-08-24T01:32:08;101176.66;;;26.53;32.65
11648;BME280;5880;52.342;9.662;2022-08-24T01:34:35;101176.34;;;26.46;32.83
11648;BME280;5880;52.342;9.662;2022-08-24T01:37:02;101183.56;;;26.47;32.59
11648;BME280;5880;52.342;9.662;2022-08-24T01:39:31;101179.75;;;26.43;32.94
11648;BME280;5880;52.342;9.662;2022-08-24T01:41:58;101174.63;;;26.36;32.86
11648;BME280;5880;52.342;9.662;2022-08-24T01:44:28;101186.34;;;26.38;32.88
11648;BME280;5880;52.342;9.662;2022-08-24T01:46:55;101177.94;;;26.29;32.98
11648;BME280;5880;52.342;9.662;2022-08-24T01:49:29;101183.69;;;26.33;33.07
11648;BME280;5880;52.342;9.662;2022-08-24T01:51:56;101191.94;;;26.29;33.01
11648;BME280;5880;52.342;9.662;2022-08-24T01:54:21;101187.63;;;26.23;33.25
11648;BME280;5880;52.342;9.662;2022-08-24T01:56:47;101193.25;;;26.23;32.95
11648;BME280;5880;52.342;9.662;2022-08-24T01:59:13;101194.72;;;26.21;33.22
11648;BME280;5880;52.342;9.662;2022-08-24T02:01:44;101189.78;;;26.18;33.31
11648;BME280;5880;52.342;9.662;2022-08-24T02:04:10;101184.63;;;26.11;33.40
11648;BME280;5880;52.342;9.662;2022-08-24T02:06:37;101194.50;;;26.08;33.39
11648;BME280;5880;52.342;9.662;2022-08-24T02:09:04;101200.59;;;26.10;33.50
11648;BME280;5880;52.342;9.662;2022-08-24T02:11:31;101203.53;;;26.05;33.50
11648;BME280;5880;52.342;9.662;2022-08-24T02:13:57;101192.19;;;26.02;33.51
11648;BME280;5880;52.342;9.662;2022-08-24T02:16:23;101195.78;;;26.02;33.59
11648;BME280;5880;52.342;9.662;2022-08-24T02:18:48;101207.81;;;26.03;33.73
11648;BME280;5880;52.342;9.662;2022-08-24T02:21:14;101202.06;;;25.99;33.64
11648;BME280;5880;52.342;9.662;2022-08-24T02:23:42;101203.19;;;25.98;33.64
11648;BME280;5880;52.342;9.662;2022-08-24T02:26:10;101198.56;;;25.94;33.95
11648;BME280;5880;52.342;9.662;2022-08-24T02:28:37;101204.97;;;25.94;33.94
11648;BME280;5880;52.342;9.662;2022-08-24T02:31:05;101203.66;;;25.92;34.08
11648;BME280;5880;52.342;9.662;2022-08-24T02:33:34;101203.47;;;25.88;34.12
11648;BME280;5880;52.342;9.662;2022-08-24T02:36:00;101199.94;;;25.82;34.06
11648;BME280;5880;52.342;9.662;2022-08-24T02:38:27;101206.41;;;25.83;34.03
11648;BME280;5880;52.342;9.662;2022-08-24T02:40:53;101215.41;;;25.80;34.37
11648;BME280;5880;52.342;9.662;2022-08-24T02:43:18;101216.56;;;25.79;33.89
11648;BME280;5880;52.342;9.662;2022-08-24T02:45:46;101211.13;;;25.74;34.37
11648;BME280;5880;52.342;9.662;2022-08-24T02:48:12;101210.31;;;25.73;34.31
11648;BME280;5880;52.342;9.662;2022-08-24T02:50:46;101205.66;;;25.68;34.55
11648;BME280;5880;52.342;9.662;2022-08-24T02:53:14;101211.56;;;25.67;34.51
11648;BME280;5880;52.342;9.662;2022-08-24T02:55:42;101211.06;;;25.65;34.55
11648;BME280;5880;52.342;9.662;2022-08-24T02:58:10;101209.53;;;25.59;34.65
11648;BME280;5880;52.342;9.662;2022-08-24T03:00:39;101221.56;;;25.59;34.71
11648;BME280;5880;52.342;9.662;2022-08-24T03:03:06;101212.16;;;25.55;34.54
11648;BME280;5880;52.342;9.662;2022-08-24T03:05:33;101206.34;;;25.52;34.44
11648;BME280;5880;52.342;9.662;2022-08-24T03:07:58;101214.59;;;25.48;34.92
11648;BME280;5880;52.342;9.662;2022-08-24T03:10:24;101220.69;;;25.50;34.57
11648;BME280;5880;52.342;9.662;2022-08-24T03:12:51;101213.13;;;25.51;34.62
11648;BME280;5880;52.342;9.662;2022-08-24T03:15:18;101221.00;;;25.48;34.78
11648;BME280;5880;52.342;9.662;2022-08-24T03:17:48;101216.66;;;25.42;34.95
11648;BME280;5880;52.342;9.662;2022-08-24T03:20:21;101222.25;;;25.42;34.90
11648;BME280;5880;52.342;9.662;2022-08-24T03:22:47;101210.06;;;25.38;35.12
11648;BME280;5880;52.342;9.662;2022-08-24T03:25:16;101212.53;;;25.40;35.15
11648;BME280;5880;52.342;9.662;2022-08-24T03:27:42;101222.25;;;25.42;34.88
11648;BME280;5880;52.342;9.662;2022-08-24T03:30:12;101222.25;;;25.42;35.07
11648;BME280;5880;52.342;9.662;2022-08-24T03:32:40;101223.22;;;25.38;35.21
11648;BME280;5880;52.342;9.662;2022-08-24T03:35:08;101228.50;;;25.39;35.29
11648;BME280;5880;52.342;9.662;2022-08-24T03:37:34;101217.63;;;25.38;35.25
11648;BME280;5880;52.342;9.662;2022-08-24T03:39:59;101217.75;;;25.33;35.03
11648;BME280;5880;52.342;9.662;2022-08-24T03:42:25;101216.63;;;25.34;35.51
11648;BME280;5880;52.342;9.662;2022-08-24T03:44:51;101210.53;;;25.32;35.08
11648;BME280;5880;52.342;9.662;2022-08-24T03:47:16;101210.31;;;25.28;35.48
11648;BME280;5880;52.342;9.662;2022-08-24T03:49:44;101215.59;;;25.30;35.36
11648;BME280;5880;52.342;9.662;2022-08-24T03:52:10;101223.16;;;25.29;35.54
11648;BME280;5880;52.342;9.662;2022-08-24T03:54:35;101221.19;;;25.30;35.36
11648;BME280;5880;52.342;9.662;2022-08-24T03:57:01;101222.66;;;25.27;35.76
11648;BME280;5880;52.342;9.662;2022-08-24T03:59:27;101220.50;;;25.24;35.53
11648;BME280;5880;52.342;9.662;2022-08-24T04:01:53;101231.88;;;25.27;35.57
11648;BME280;5880;52.342;9.662;2022-08-24T04:04:20;101224.94;;;25.25;35.59
11648;BME280;5880;52.342;9.662;2022-08-24T04:06:46;101226.59;;;25.26;35.88
11648;BME280;5880;52.342;9.662;2022-08-24T04:09:14;101219.34;;;25.25;35.88
11648;BME280;5880;52.342;9.662;2022-08-24T04:11:40;101218.53;;;25.24;36.25
11648;BME280;5880;52.342;9.662;2022-08-24T04:14:10;101219.66;;;25.23;36.29
11648;BME280;5880;52.342;9.662;2022-08-24T04:16:36;101218.13;;;25.17;35.76
11648;BME280;5880;52.342;9.662;2022-08-24T04:19:01;101223.41;;;25.19;35.87
11648;BME280;5880;52.342;9.662;2022-08-24T04:21:34;101227.06;;;25.19;36.35
11648;BME280;5880;52.342;9.662;2022-08-24T04:24:02;101227.63;;;25.16;35.97
11648;BME280;5880;52.342;9.662;2022-08-24T04:26:30;101221.00;;;25.12;36.20
11648;BME280;5880;52.342;9.662;2022-08-24T04:28:57;101222.69;;;25.13;36.24
11648;BME280;5880;52.342;9.662;2022-08-24T04:31:24;101215.25;;;25.09;36.58
11648;BME280;5880;52.342;9.662;2022-08-24T04:33:51;101221.66;;;25.09;36.49
11648;BME280;5880;52.342;9.662;2022-08-24T04:36:20;101221.66;;;25.09;36.48
11648;BME280;5880;52.342;9.662;2022-08-24T04:38:47;101232.31;;;25.07;36.15
11648;BME280;5880;52.342;9.662;2022-08-24T04:41:15;101225.91;;;25.06;36.30
11648;BME280;5880;52.342;9.662;2022-08-24T04:43:45;101232.16;;;25.03;36.45
11648;BME280;5880;52.342;9.662;2022-08-24T04:46:14;101222.41;;;25.01;36.43
11648;BME280;5880;52.342;9.662;2022-08-24T04:48:42;101232.97;;;25.04;36.81
11648;BME280;5880;52.342;9.662;2022-08-24T04:51:11;101236.06;;;25.02;36.95
11648;BME280;5880;52.342;9.662;2022-08-24T04:53:38;101237.22;;;25.01;37.06
11648;BME280;5880;52.342;9.662;2022-08-24T04:56:21;101241.66;;;25.02;36.75
11648;BME280;5880;52.342;9.662;2022-08-24T04:58:49;101237.53;;;25.00;37.02
11648;BME280;5880;52.342;9.662;2022-08-24T05:01:21;101232.75;;;25.00;37.25
11648;BME280;5880;52.342;9.662;2022-08-24T05:03:50;101241.13;;;25.00;37.34
11648;BME280;5880;52.342;9.662;2022-08-24T05:06:19;101238.81;;;24.94;36.85
11648;BME280;5880;52.342;9.662;2022-08-24T05:08:45;101253.47;;;24.99;37.38
11648;BME280;5880;52.342;9.662;2022-08-24T05:11:13;101240.44;;;24.95;37.06
11648;BME280;5880;52.342;9.662;2022-08-24T05:13:40;101243.75;;;24.97;37.10
11648;BME280;5880;52.342;9.662;2022-08-24T05:16:14;101242.41;;;24.94;37.33
11648;BME280;5880;52.342;9.662;2022-08-24T05:18:41;101236.63;;;24.91;37.47
11648;BME280;5880;52.342;9.662;2022-08-24T05:21:10;101246.25;;;24.98;37.62
11648;BME280;5880;52.342;9.662;2022-08-24T05:23:38;101251.19;;;25.01;37.69
11648;BME280;5880;52.342;9.662;2022-08-24T05:26:09;101243.63;;;25.02;37.88
11648;BME280;5880;52.342;9.662;2022-08-24T05:28:36;101243.63;;;25.02;37.67
11648;BME280;5880;52.342;9.662;2022-08-24T05:31:18;101256.88;;;25.10;37.86
11648;BME280;5880;52.342;9.662;2022-08-24T05:33:45;101245.69;;;25.10;37.66
11648;BME280;5880;52.342;9.662;2022-08-24T05:38:54;101248.28;;;25.20;38.11
11648;BME280;5880;52.342;9.662;2022-08-24T05:41:22;101253.56;;;25.22;38.22
11648;BME280;5880;52.342;9.662;2022-08-24T05:43:48;101251.44;;;25.27;38.29
11648;BME280;5880;52.342;9.662;2022-08-24T05:46:14;101261.06;;;25.35;38.30
11648;BME280;5880;52.342;9.662;2022-08-24T05:48:40;101250.19;;;25.34;38.42
11648;BME280;5880;52.342;9.662;2022-08-24T05:51:07;101251.19;;;25.38;38.44
11648;BME280;5880;52.342;9.662;2022-08-24T05:53:34;101252.72;;;25.44;38.05
11648;BME280;5880;52.342;9.662;2022-08-24T05:56:09;101262.66;;;25.50;38.08
11648;BME280;5880;52.342;9.662;2022-08-24T05:58:36;101260.03;;;25.54;38.45
11648;BME280;5880;52.342;9.662;2022-08-24T06:01:07;101268.00;;;25.60;38.50
11648;BME280;5880;52.342;9.662;2022-08-24T06:03:33;101268.50;;;25.62;38.57
11648;BME280;5880;52.342;9.662;2022-08-24T06:06:02;101274.78;;;25.68;38.42
11648;BME280;5880;52.342;9.662;2022-08-24T06:08:28;101282.88;;;25.69;38.35
11648;BME280;5880;52.342;9.662;2022-08-24T06:10:55;101279.13;;;25.74;38.74
11648;BME280;5880;52.342;9.662;2022-08-24T06:13:22;101285.91;;;25.82;38.76
11648;BME280;5880;52.342;9.662;2022-08-24T06:15:47;101280.31;;;25.82;38.86
11648;BME280;5880;52.342;9.662;2022-08-24T06:18:13;101287.66;;;25.92;38.94
11648;BME280;5880;52.342;9.662;2022-08-24T06:20:41;101279.75;;;25.94;38.69
11648;BME280;5880;52.342;9.662;2022-08-24T06:23:08;101283.78;;;26.01;38.83
11648;BME280;5880;52.342;9.662;2022-08-24T06:25:38;101300.28;;;26.11;38.66
11648;BME280;5880;52.342;9.662;2022-08-24T06:28:24;101288.13;;;26.16;38.86
11648;BME280;5880;52.342;9.662;2022-08-24T06:30:50;101303.69;;;26.31;38.74
11648;BME280;5880;52.342;9.662;2022-08-24T06:33:24;101301.09;;;26.43;38.93
11648;BME280;5880;52.342;9.662;2022-08-24T06:35:50;101296.72;;;26.60;38.75
11648;BME280;5880;52.342;9.662;2022-08-24T06:38:16;101307.81;;;26.73;38.86
11648;BME280;5880;52.342;9.662;2022-08-24T06:40:41;101301.75;;;26.80;38.70
11648;BME280;5880;52.342;9.662;2022-08-24T06:43:07;101299.13;;;26.84;38.60
11648;BME280;5880;52.342;9.662;2022-08-24T06:45:33;101293.66;;;26.87;38.49
11648;BME280;5880;52.342;9.662;2022-08-24T06:47:58;101309.84;;;26.90;38.59
11648;BME280;5880;52.342;9.662;2022-08-24T06:50:24;101310.19;;;26.98;38.21
11648;BME280;5880;52.342;9.662;2022-08-24T06:52:50;101304.75;;;27.01;38.54
11648;BME280;5880;52.342;9.662;2022-08-24T06:55:16;101299.13;;;27.01;38.57
11648;BME280;5880;52.342;9.662;2022-08-24T06:57:41;101301.63;;;27.03;38.30
11648;BME280;5880;52.342;9.662;2022-08-24T07:00:08;101303.25;;;27.04;38.34
11648;BME280;5880;52.342;9.662;2022-08-24T07:02:35;101315.19;;;27.09;38.44
11648;BME280;5880;52.342;9.662;2022-08-24T07:05:00;101312.19;;;27.14;38.52
11648;BME280;5880;52.342;9.662;2022-08-24T07:07:26;101313.03;;;27.15;38.43
11648;BME280;5880;52.342;9.662;2022-08-24T07:09:52;101309.91;;;27.16;38.57
11648;BME280;5880;52.342;9.662;2022-08-24T07:12:18;101308.13;;;27.21;38.44
11648;BME280;5880;52.342;9.662;2022-08-24T07:14:43;101312.72;;;27.25;38.80
11648;BME280;5880;52.342;9.662;2022-08-24T07:17:09;101314.72;;;27.25;38.58
11648;BME280;5880;52.342;9.662;2022-08-24T07:19:35;101323.97;;;27.34;38.60
11648;BME280;5880;52.342;9.662;2022-08-24T07:22:01;101322.47;;;27.36;38.57
11648;BME280;5880;52.342;9.662;2022-08-24T07:24:26;101320.16;;;27.39;38.78
11648;BME280;5880;52.342;9.662;2022-08-24T07:26:52;101318.34;;;27.43;38.95
11648;BME280;5880;52.342;9.662;2022-08-24T07:29:17;101327.94;;;27.50;38.84
11648;BME280;5880;52.342;9.662;2022-08-24T07:31:43;101331.41;;;27.56;38.63
11648;BME280;5880;52.342;9.662;2022-08-24T07:34:10;101335.38;;;27.64;38.79
11648;BME280;5880;52.342;9.662;2022-08-24T07:36:37;101336.19;;;27.73;38.70
11648;BME280;5880;52.342;9.662;2022-08-24T07:39:05;101342.94;;;27.81;38.77
11648;BME280;5880;52.342;9.662;2022-08-24T07:41:37;101340.47;;;27.88;38.63
11648;BME280;5880;52.342;9.662;2022-08-24T07:44:03;101347.09;;;27.92;38.62
11648;BME280;5880;52.342;9.662;2022-08-24T07:46:29;101333.53;;;27.94;38.53
11648;BME280;5880;52.342;9.662;2022-08-24T07:48:55;101336.00;;;28.04;38.50
11648;BME280;5880;52.342;9.662;2022-08-24T07:51:20;101345.91;;;28.10;38.48
11648;BME280;5880;52.342;9.662;2022-08-24T07:53:46;101345.03;;;28.18;38.29
11648;BME280;5880;52.342;9.662;2022-08-24T07:56:12;101335.78;;;28.18;38.00
11648;BME280;5880;52.342;9.662;2022-08-24T07:58:38;101347.84;;;28.27;38.11
11648;BME280;5880;52.342;9.662;2022-08-24T08:01:05;101354.94;;;28.33;38.34
11648;BME280;5880;52.342;9.662;2022-08-24T08:03:32;101343.00;;;28.36;38.20
11648;BME280;5880;52.342;9.662;2022-08-24T08:06:03;101345.47;;;28.47;37.99
11648;BME280;5880;52.342;9.662;2022-08-24T08:08:32;101348.94;;;28.52;38.00
11648;BME280;5880;52.342;9.662;2022-08-24T08:10:58;101355.50;;;28.56;38.09
11648;BME280;5880;52.342;9.662;2022-08-24T08:13:26;101356.38;;;28.57;38.06
11648;BME280;5880;52.342;9.662;2022-08-24T08:15:51;101359.63;;;28.68;37.77
11648;BME280;5880;52.342;9.662;2022-08-24T08:18:18;101352.84;;;28.69;37.92
11648;BME280;5880;52.342;9.662;2022-08-24T08:20:44;101356.75;;;28.76;37.74
11648;BME280;5880;52.342;9.662;2022-08-24T08:23:10;101350.13;;;28.81;37.77
11648;BME280;5880;52.342;9.662;2022-08-24T08:25:55;101346.50;;;28.80;37.71
11648;BME280;5880;52.342;9.662;2022-08-24T08:28:28;101338.19;;;28.84;37.41
11648;BME280;5880;52.342;9.662;2022-08-24T08:31:02;101335.84;;;28.86;37.70
11648;BME280;5880;52.342;9.662;2022-08-24T08:33:28;101340.97;;;28.93;37.43
11648;BME280;5880;52.342;9.662;2022-08-24T08:36:11;101336.09;;;29.02;37.29
11648;BME280;5880;52.342;9.662;2022-08-24T08:38:38;101341.41;;;29.03;37.50
11648;BME280;5880;52.342;9.662;2022-08-24T08:43:53;101342.19;;;29.13;37.23
11648;BME280;5880;52.342;9.662;2022-08-24T08:46:55;101335.38;;;29.14;37.05
11648;BME280;5880;52.342;9.662;2022-08-24T08:49:54;101324.75;;;29.19;37.14
11648;BME280;5880;52.342;9.662;2022-08-24T08:52:59;101336.75;;;29.29;37.22
11648;BME280;5880;52.342;9.662;2022-08-24T08:55:56;101334.91;;;29.33;36.80
11648;BME280;5880;52.342;9.662;2022-08-24T09:01:40;101333.00;;;29.45;36.92
11648;BME280;5880;52.342;9.662;2022-08-24T09:08:00;101321.16;;;29.52;36.60
11648;BME280;5880;52.342;9.662;2022-08-24T09:13:57;101318.25;;;29.70;36.44
11648;BME280;5880;52.342;9.662;2022-08-24T09:16:58;101317.69;;;29.76;36.33
11648;BME280;5880;52.342;9.662;2022-08-24T09:22:13;101322.06;;;29.86;35.86
11648;BME280;5880;52.342;9.662;2022-08-24T09:24:56;101328.78;;;29.94;35.81
11648;BME280;5880;52.342;9.662;2022-08-24T09:27:48;101322.91;;;29.99;35.50
11648;BME280;5880;52.342;9.662;2022-08-24T09:30:21;101312.94;;;30.01;35.57
11648;BME280;5880;52.342;9.662;2022-08-24T09:33:29;101318.38;;;30.06;35.73
11648;BME280;5880;52.342;9.662;2022-08-24T09:36:31;101319.91;;;30.16;35.79
11648;BME280;5880;52.342;9.662;2022-08-24T09:39:26;101328.97;;;30.22;35.50
11648;BME280;5880;52.342;9.662;2022-08-24T09:45:30;101324.56;;;30.33;35.42
11648;BME280;5880;52.342;9.662;2022-08-24T09:50:59;101330.44;;;30.40;34.53
11648;BME280;5880;52.342;9.662;2022-08-24T09:56:50;101320.81;;;30.54;34.12
11648;BME280;5880;52.342;9.662;2022-08-24T10:11:59;101314.69;;;30.76;34.13
11648;BME280;5880;52.342;9.662;2022-08-24T10:14:52;101325.53;;;30.86;34.00
11648;BME280;5880;52.342;9.662;2022-08-24T10:17:46;101324.56;;;30.95;33.84
11648;BME280;5880;52.342;9.662;2022-08-24T10:20:51;101308.94;;;30.97;33.85
11648;BME280;5880;52.342;9.662;2022-08-24T10:30:35;101304.28;;;31.29;33.71
11648;BME280;5880;52.342;9.662;2022-08-24T10:33:17;101303.31;;;31.50;34.16
11648;BME280;5880;52.342;9.662;2022-08-24T10:36:19;101312.66;;;31.66;33.20
11648;BME280;5880;52.342;9.662;2022-08-24T10:51:59;101291.19;;;31.78;32.38
11648;BME280;5880;52.342;9.662;2022-08-24T10:54:35;101289.97;;;31.79;32.32
11648;BME280;5880;52.342;9.662;2022-08-24T10:57:31;101295.47;;;31.87;32.28
11648;BME280;5880;52.342;9.662;2022-08-24T11:00:13;101303.56;;;31.89;31.94
11648;BME280;5880;52.342;9.662;2022-08-24T11:02:44;101290.38;;;31.93;31.78
11648;BME280;5880;52.342;9.662;2022-08-24T11:05:27;101297.69;;;31.94;31.36
11648;BME280;5880;52.342;9.662;2022-08-24T11:08:01;101288.56;;;32.01;31.25
11648;BME280;5880;52.342;9.662;2022-08-24T11:10:33;101294.69;;;32.03;30.52
11648;BME280;5880;52.342;9.662;2022-08-24T11:13:20;101291.63;;;32.08;30.86
11648;BME280;5880;52.342;9.662;2022-08-24T11:15:53;101290.78;;;32.07;30.48
11648;BME280;5880;52.342;9.662;2022-08-24T11:18:20;101284.03;;;32.12;30.35
11648;BME280;5880;52.342;9.662;2022-08-24T11:20:50;101287.91;;;32.20;30.51
11648;BME280;5880;52.342;9.662;2022-08-24T11:23:34;101277.47;;;32.24;30.28
11648;BME280;5880;52.342;9.662;2022-08-24T11:26:09;101290.53;;;32.28;30.15
11648;BME280;5880;52.342;9.662;2022-08-24T11:28:53;101285.72;;;32.29;29.84
11648;BME280;5880;52.342;9.662;2022-08-24T11:31:36;101291.78;;;32.31;29.79
11648;BME280;5880;52.342;9.662;2022-08-24T11:34:14;101289.06;;;32.34;29.90
11648;BME280;5880;52.342;9.662;2022-08-24T11:36:40;101289.53;;;32.36;29.80
11648;BME280;5880;52.342;9.662;2022-08-24T11:39:21;101290.81;;;32.39;29.61
11648;BME280;5880;52.342;9.662;2022-08-24T11:42:34;101292.81;;;32.38;29.78
11648;BME280;5880;52.342;9.662;2022-08-24T11:45:29;101287.16;;;32.38;29.46
11648;BME280;5880;52.342;9.662;2022-08-24T11:48:24;101285.59;;;32.41;29.80
11648;BME280;5880;52.342;9.662;2022-08-24T11:51:09;101281.22;;;32.44;29.73
11648;BME280;5880;52.342;9.662;2022-08-24T12:02:41;101271.19;;;32.46;28.91
11648;BME280;5880;52.342;9.662;2022-08-24T12:08:37;101279.06;;;32.53;29.09
11648;BME280;5880;52.342;9.662;2022-08-24T12:11:29;101277.41;;;32.52;28.85
11648;BME280;5880;52.342;9.662;2022-08-24T12:14:24;101288.53;;;32.61;28.66
11648;BME280;5880;52.342;9.662;2022-08-24T12:17:22;101274.31;;;32.57;28.42
11648;BME280;5880;52.342;9.662;2022-08-24T12:20:09;101264.72;;;32.62;28.65
11648;BME280;5880;52.342;9.662;2022-08-24T12:22:40;101270.09;;;32.67;28.76
11648;BME280;5880;52.342;9.662;2022-08-24T12:25:09;101269.00;;;32.71;28.05
11648;BME280;5880;52.342;9.662;2022-08-24T12:27:57;101269.00;;;32.71;28.26
11648;BME280;5880;52.342;9.662;2022-08-24T12:30:25;101272.84;;;32.83;28.26
11648;BME280;5880;52.342;9.662;2022-08-24T12:32:57;101278.72;;;32.90;28.40
11648;BME280;5880;52.342;9.662;2022-08-24T12:35:33;101272.31;;;32.93;28.34
11648;BME280;5880;52.342;9.662;2022-08-24T12:38:44;101276.03;;;32.97;28.41
11648;BME280;5880;52.342;9.662;2022-08-24T12:41:35;101274.47;;;32.99;28.23
11648;BME280;5880;52.342;9.662;2022-08-24T12:44:12;101266.06;;;33.03;28.43
11648;BME280;5880;52.342;9.662;2022-08-24T12:46:40;101258.38;;;33.04;28.49
11648;BME280;5880;52.342;9.662;2022-08-24T12:49:36;101259.31;;;33.08;28.25
11648;BME280;5880;52.342;9.662;2022-08-24T12:55:18;101264.75;;;33.16;28.46
11648;BME280;5880;52.342;9.662;2022-08-24T12:57:54;101266.84;;;33.19;28.08
11648;BME280;5880;52.342;9.662;2022-08-24T13:00:36;101248.72;;;33.24;28.01
11648;BME280;5880;52.342;9.662;2022-08-24T13:03:25;101250.84;;;33.27;27.90
11648;BME280;5880;52.342;9.662;2022-08-24T13:06:00;101259.47;;;33.34;27.90
11648;BME280;5880;52.342;9.662;2022-08-24T13:08:39;101256.34;;;33.39;27.93
11648;BME280;5880;52.342;9.662;2022-08-24T13:25:01;101247.31;;;33.53;27.67
11648;BME280;5880;52.342;9.662;2022-08-24T13:27:46;101255.06;;;33.56;27.46
11648;BME280;5880;52.342;9.662;2022-08-24T13:30:27;101251.50;;;33.59;27.12
11648;BME280;5880;52.342;9.662;2022-08-24T13:33:09;101247.94;;;33.62;26.88
11648;BME280;5880;52.342;9.662;2022-08-24T13:40:57;101241.50;;;33.66;26.58
11648;BME280;5880;52.342;9.662;2022-08-24T13:46:51;101242.00;;;33.71;26.63
11648;BME280;5880;52.342;9.662;2022-08-24T13:50:10;101236.78;;;33.73;27.04
11648;BME280;5880;52.342;9.662;2022-08-24T13:52:56;101238.03;;;33.76;26.90
11648;BME280;5880;52.342;9.662;2022-08-24T13:55:44;101232.81;;;33.78;26.94
11648;BME280;5880;52.342;9.662;2022-08-24T13:58:52;101233.34;;;33.83;26.16
11648;BME280;5880;52.342;9.662;2022-08-24T14:05:08;101229.28;;;33.84;26.92
11648;BME280;5880;52.342;9.662;2022-08-24T14:07:58;101224.84;;;33.83;26.06
11648;BME280;5880;52.342;9.662;2022-08-24T14:16:44;101226.91;;;33.87;26.03
11648;BME280;5880;52.342;9.662;2022-08-24T14:19:56;101243.59;;;33.92;26.34
11648;BME280;5880;52.342;9.662;2022-08-24T14:25:27;101236.34;;;33.94;25.83
11648;BME280;5880;52.342;9.662;2022-08-24T14:35:55;101238.88;;;33.99;25.70
11648;BME280;5880;52.342;9.662;2022-08-24T14:38:41;101228.72;;;33.98;25.34
11648;BME280;5880;52.342;9.662;2022-08-24T14:41:18;101222.31;;;34.01;25.71
11648;BME280;5880;52.342;9.662;2022-08-24T14:46:50;101228.03;;;34.05;25.57
11648;BME280;5880;52.342;9.662;2022-08-24T14:50:07;101218.72;;;34.04;25.08
11648;BME280;5880;52.342;9.662;2022-08-24T14:53:24;101217.44;;;34.02;25.75
11648;BME280;5880;52.342;9.662;2022-08-24T14:56:12;101218.28;;;34.02;25.74
11648;BME280;5880;52.342;9.662;2022-08-24T14:59:06;101209.38;;;34.04;25.66
11648;BME280;5880;52.342;9.662;2022-08-24T15:04:29;101206.97;;;34.06;25.79
11648;BME280;5880;52.342;9.662;2022-08-24T15:07:27;101210.59;;;34.03;25.25
11648;BME280;5880;52.342;9.662;2022-08-24T15:09:55;101201.56;;;33.97;25.31
11648;BME280;5880;52.342;9.662;2022-08-24T15:12:41;101198.81;;;34.01;25.79
11648;BME280;5880;52.342;9.662;2022-08-24T15:15:30;101201.28;;;34.02;25.91
11648;BME280;5880;52.342;9.662;2022-08-24T15:18:17;101194.75;;;34.02;25.63
11648;BME280;5880;52.342;9.662;2022-08-24T15:24:16;101211.34;;;34.00;25.69
11648;BME280;5880;52.342;9.662;2022-08-24T15:27:06;101205.25;;;33.98;25.05
11648;BME280;5880;52.342;9.662;2022-08-24T15:29:55;101199.94;;;33.96;25.20
11648;BME280;5880;52.342;9.662;2022-08-24T15:32:26;101196.22;;;33.92;25.41
11648;BME280;5880;52.342;9.662;2022-08-24T15:35:04;101192.53;;;33.88;25.25
11648;BME280;5880;52.342;9.662;2022-08-24T15:37:34;101197.78;;;33.90;25.35
11648;BME280;5880;52.342;9.662;2022-08-24T15:40:04;101199.75;;;33.85;24.83
11648;BME280;5880;52.342;9.662;2022-08-24T15:42:34;101197.69;;;33.82;24.83
11648;BME280;5880;52.342;9.662;2022-08-24T15:45:03;101199.25;;;33.80;24.78
11648;BME280;5880;52.342;9.662;2022-08-24T15:47:34;101205.28;;;33.78;25.14